Time;durP1;ratioP1;P1;durP2;ratioP2;P2;SDS_P1;SDS_P2;PMS_P1;PMS_P2;Temp;Humidity;BMP_temperature;BMP_pressure;BME280_temperature;BME280_humidity;BME280_pressure;Samples;Min_cycle;Max_cycle;Signal;HPM_P1;HPM_P2
2022/03/17 00:00:41;;;;;;;27.65;13.48;;;;;;;10.51;75.77;101873.50;5044957;28;20028;-55
2022/03/17 00:03:07;;;;;;;19.92;13.75;;;;;;;10.49;76.29;101877.91;5044953;28;20025;-57
2022/03/17 00:05:33;;;;;;;22.02;13.10;;;;;;;10.51;75.88;101878.78;5045156;28;20502;-56
2022/03/17 00:07:58;;;;;;;27.17;12.52;;;;;;;10.58;76.19;101883.03;5045106;28;20029;-55
2022/03/17 00:10:23;;;;;;;22.70;13.07;;;;;;;10.59;76.20;101884.78;5035295;28;20048;-56
2022/03/17 00:12:49;;;;;;;19.60;13.10;;;;;;;10.57;76.12;101883.06;5025499;28;20040;-55
2022/03/17 00:15:15;;;;;;;19.50;13.52;;;;;;;10.57;76.16;101894.47;5023644;28;20029;-57
2022/03/17 00:17:41;;;;;;;25.73;14.20;;;;;;;10.64;76.11;101897.00;5024191;28;20026;-56
2022/03/17 00:20:10;;;;;;;20.45;13.75;;;;;;;10.67;75.70;101902.22;5025196;28;20038;-59
2022/03/17 00:22:35;;;;;;;23.45;14.82;;;;;;;10.65;76.18;101904.88;5025291;28;20028;-56
2022/03/17 00:25:01;;;;;;;20.52;13.05;;;;;;;10.70;76.03;101892.50;5023937;28;20357;-59
2022/03/17 00:27:26;;;;;;;23.00;14.07;;;;;;;10.65;76.10;101885.56;5024813;28;20083;-55
2022/03/17 00:29:52;;;;;;;23.30;14.20;;;;;;;10.69;75.95;101889.91;5024701;28;20022;-56
2022/03/17 00:32:17;;;;;;;24.13;14.27;;;;;;;10.68;76.40;101888.13;5023958;28;20029;-56
2022/03/17 00:37:27;;;;;;;22.02;13.50;;;;;;;10.70;76.38;101891.63;5013680;28;20467;-55
2022/03/17 00:39:53;;;;;;;22.83;13.73;;;;;;;10.66;76.43;101890.81;5008423;28;20057;-60
2022/03/17 00:42:19;;;;;;;25.60;14.52;;;;;;;10.64;76.87;101897.88;5015989;28;20467;-55
2022/03/17 00:44:46;;;;;;;23.92;14.65;;;;;;;10.67;76.64;101891.69;5048017;28;20037;-56
2022/03/17 00:47:12;;;;;;;22.42;13.70;;;;;;;10.73;76.46;101889.81;5046153;28;20435;-55
2022/03/17 00:49:37;;;;;;;27.55;14.75;;;;;;;10.73;76.28;101902.13;5047443;28;20104;-57
2022/03/17 00:52:03;;;;;;;21.85;14.52;;;;;;;10.76;76.49;101901.19;5048863;28;20111;-56
2022/03/17 00:54:28;;;;;;;23.77;14.50;;;;;;;10.75;76.53;101897.69;5028624;28;20037;-53
2022/03/17 00:56:53;;;;;;;27.70;15.02;;;;;;;10.81;76.31;101897.56;5047759;28;20094;-56
2022/03/17 00:59:19;;;;;;;26.70;14.52;;;;;;;10.80;76.78;101892.31;5047159;28;20060;-59
2022/03/17 01:01:44;;;;;;;30.00;15.75;;;;;;;10.77;77.06;101902.94;5045920;28;20163;-55
2022/03/17 01:04:09;;;;;;;22.73;14.63;;;;;;;10.80;77.01;101908.13;5047421;28;20089;-55
2022/03/17 01:06:35;;;;;;;33.17;15.88;;;;;;;10.89;76.97;101902.72;5047253;28;20020;-55
2022/03/17 01:09:00;;;;;;;20.92;14.82;;;;;;;10.85;77.47;101898.41;5048097;28;20025;-57
2022/03/17 01:11:25;;;;;;;27.48;16.08;;;;;;;10.94;77.74;101907.91;5046867;28;20048;-56
2022/03/17 01:13:51;;;;;;;24.80;16.83;;;;;;;10.92;78.44;101907.03;5047890;28;20118;-58
2022/03/17 01:16:16;;;;;;;31.40;15.85;;;;;;;10.89;78.80;101910.63;5047881;28;20492;-57
2022/03/17 01:18:41;;;;;;;33.30;18.63;;;;;;;10.84;79.73;101913.34;5035017;28;20029;-58
2022/03/17 01:21:07;;;;;;;31.27;18.27;;;;;;;10.88;79.87;101911.53;5026792;28;20472;-56
2022/03/17 01:23:33;;;;;;;28.98;18.80;;;;;;;10.84;80.40;101909.84;5027566;28;20052;-55
2022/03/17 01:25:58;;;;;;;31.00;17.95;;;;;;;10.87;80.53;101915.91;5027327;28;20034;-55
2022/03/17 01:28:23;;;;;;;35.67;19.85;;;;;;;10.87;80.57;101915.91;5027846;28;20025;-60
2022/03/17 01:30:50;;;;;;;31.27;20.30;;;;;;;10.82;81.09;101915.16;5027981;28;20044;-56
2022/03/17 01:33:15;;;;;;;31.63;20.08;;;;;;;10.87;81.33;101921.19;5027460;28;20033;-56
2022/03/17 01:35:41;;;;;;;33.47;21.67;;;;;;;10.87;81.84;101923.81;5038676;28;20036;-54
2022/03/17 01:38:06;;;;;;;36.63;22.52;;;;;;;10.84;82.00;101933.56;5047309;28;20021;-60
2022/03/17 01:40:32;;;;;;;36.80;21.63;;;;;;;10.79;82.50;101936.28;5046508;28;20087;-54
2022/03/17 01:42:57;;;;;;;32.53;22.48;;;;;;;10.78;83.53;101936.31;5047363;28;20029;-57
2022/03/17 01:45:22;;;;;;;41.30;25.05;;;;;;;10.77;83.50;101935.44;5047098;28;20079;-55
2022/03/17 01:47:48;;;;;;;39.80;24.50;;;;;;;10.80;83.69;101940.66;5041731;28;20137;-59
2022/03/17 01:50:16;;;;;;;45.40;26.73;;;;;;;10.71;84.85;101943.44;5027367;28;20030;-57
2022/03/17 01:52:42;;;;;;;48.00;28.10;;;;;;;10.72;85.05;101966.28;5026848;28;20160;-55
2022/03/17 01:55:09;;;;;;;57.95;30.50;;;;;;;10.75;84.93;101953.06;5026364;28;20037;-58
2022/03/17 01:57:34;;;;;;;48.17;29.45;;;;;;;10.76;84.99;101964.47;5009774;28;20022;-58
2022/03/17 02:00:00;;;;;;;42.00;24.17;;;;;;;10.80;84.64;101984.59;5009277;28;20033;-55
2022/03/17 02:02:26;;;;;;;24.88;17.15;;;;;;;10.71;84.02;101988.25;5025575;28;20034;-60
2022/03/17 02:04:51;;;;;;;19.90;15.02;;;;;;;10.54;84.32;101992.03;5027682;22;20046;-58
2022/03/17 02:07:17;;;;;;;19.58;14.48;;;;;;;10.42;84.79;101986.91;5005825;28;20092;-57
2022/03/17 02:09:44;;;;;;;20.27;14.10;;;;;;;10.19;85.29;101998.66;5010630;28;20037;-58
2022/03/17 02:15:01;;;;;;;9.35;6.20;;;;;;;9.61;82.80;102059.88;5007206;28;20053;-57
2022/03/17 02:17:32;;;;;;;11.63;5.35;;;;;;;9.27;83.35;102052.31;5005162;28;20255;-62
2022/03/17 02:19:59;;;;;;;9.38;5.03;;;;;;;8.92;83.91;102068.38;5006852;28;20033;-57
2022/03/17 02:22:25;;;;;;;9.98;6.28;;;;;;;8.64;84.65;102078.19;5006025;28;20113;-59
2022/03/17 02:27:46;;;;;;;12.27;6.28;;;;;;;8.30;85.66;102069.56;5017069;28;20059;-58
2022/03/17 02:30:13;;;;;;;14.13;6.53;;;;;;;8.29;85.51;102095.81;5016806;28;20057;-59
2022/03/17 02:32:39;;;;;;;15.60;6.70;;;;;;;8.14;86.05;102067.88;5005843;28;20037;-59
2022/03/17 02:35:07;;;;;;;16.17;7.07;;;;;;;8.09;85.72;102088.88;5005573;28;20030;-57
2022/03/17 02:37:33;;;;;;;14.57;7.18;;;;;;;8.06;86.16;102081.03;5006125;28;20494;-55
2022/03/17 02:40:00;;;;;;;15.98;6.97;;;;;;;8.09;86.42;102087.16;5005376;28;20021;-57
2022/03/17 02:42:30;;;;;;;13.27;7.10;;;;;;;8.02;86.77;102089.78;5006564;28;20025;-57
2022/03/17 02:44:56;;;;;;;11.43;6.82;;;;;;;7.96;86.53;102093.31;5005945;28;20172;-57
2022/03/17 02:47:21;;;;;;;15.27;7.00;;;;;;;7.96;86.40;102094.19;5004789;28;20030;-58
2022/03/17 02:49:47;;;;;;;13.13;6.93;;;;;;;7.95;86.83;102099.44;5006756;28;20053;-58
2022/03/17 02:52:12;;;;;;;12.75;7.18;;;;;;;7.93;86.86;102106.44;5006363;28;20105;-56
2022/03/17 02:54:38;;;;;;;17.42;9.07;;;;;;;7.92;87.02;102112.56;5007328;28;20403;-58
2022/03/17 02:57:06;;;;;;;18.65;9.30;;;;;;;7.93;86.68;102115.19;5006131;28;20371;-57
2022/03/17 02:59:32;;;;;;;19.60;10.30;;;;;;;7.91;86.71;102142.31;5005651;28;20462;-56
2022/03/17 03:01:57;;;;;;;18.35;10.93;;;;;;;7.93;86.59;102114.31;5006515;28;20026;-58
2022/03/17 03:04:23;;;;;;;27.50;11.55;;;;;;;7.96;86.78;102137.94;5006186;28;20096;-57
2022/03/17 03:06:49;;;;;;;22.50;11.13;;;;;;;7.91;86.51;102135.31;5006043;28;20041;-58
2022/03/17 03:09:14;;;;;;;20.92;11.20;;;;;;;7.89;86.12;102136.19;5006024;28;20080;-57
2022/03/17 03:11:39;;;;;;;21.00;11.68;;;;;;;7.90;85.74;102153.69;5004933;28;20088;-59
2022/03/17 03:14:07;;;;;;;25.60;11.35;;;;;;;7.94;85.47;102176.41;4989374;28;20057;-58
2022/03/17 03:16:33;;;;;;;30.85;11.50;;;;;;;7.89;85.19;102170.31;5004302;28;20121;-59
2022/03/17 03:18:58;;;;;;;23.60;10.50;;;;;;;7.86;84.90;102172.94;5005582;28;20060;-58
2022/03/17 03:21:23;;;;;;;23.73;10.90;;;;;;;7.89;84.41;102196.56;5005267;28;20076;-56
2022/03/17 03:23:49;;;;;;;26.63;9.88;;;;;;;7.86;84.27;102204.44;5005795;28;20099;-57
2022/03/17 03:26:14;;;;;;;21.95;8.98;;;;;;;7.90;84.17;102207.06;5005238;28;20136;-59
2022/03/17 03:28:39;;;;;;;19.02;9.55;;;;;;;7.89;83.78;102200.03;5024970;28;20029;-58
2022/03/17 03:31:06;;;;;;;25.70;10.25;;;;;;;7.79;84.55;102214.03;5024794;28;20029;-55
2022/03/17 03:33:31;;;;;;;29.73;10.77;;;;;;;7.83;84.51;102257.81;5025124;28;20431;-58
2022/03/17 03:38:40;;;;;;;33.58;7.25;;;;;;;7.75;83.50;102243.78;5024855;28;20775;-59
2022/03/17 03:41:06;;;;;;;32.50;6.60;;;;;;;7.67;83.54;102251.66;5025530;28;20033;-60
2022/03/17 03:43:32;;;;;;;30.02;5.28;;;;;;;7.71;83.24;102248.19;5021852;28;20049;-59
2022/03/17 03:45:58;;;;;;;26.77;5.38;;;;;;;7.64;83.05;102275.25;5005519;28;20022;-57
2022/03/17 03:48:23;;;;;;;18.08;3.78;;;;;;;7.57;82.06;102267.41;5004544;28;20037;-56
2022/03/17 03:50:49;;;;;;;18.02;4.03;;;;;;;7.53;82.29;102270.84;5005376;28;20391;-56
2022/03/17 03:53:14;;;;;;;17.30;4.13;;;;;;;7.53;82.56;102273.47;5004741;28;20412;-58
2022/03/17 03:55:39;;;;;;;21.83;4.63;;;;;;;7.54;82.32;102292.72;5004899;28;20030;-57
2022/03/17 03:58:04;;;;;;;20.95;3.47;;;;;;;7.51;82.25;102282.22;5004584;28;20045;-57
2022/03/17 04:00:33;;;;;;;19.98;3.80;;;;;;;7.49;81.94;102305.84;5005098;28;20053;-58
2022/03/17 04:02:59;;;;;;;14.65;3.58;;;;;;;7.47;81.54;102297.09;5005768;28;20157;-58
2022/03/17 04:05:34;;;;;;;17.88;2.97;;;;;;;7.42;81.56;102296.19;5005332;28;20142;-58
2022/03/17 04:08:00;;;;;;;21.23;3.63;;;;;;;7.43;81.23;102297.94;5009378;28;20033;-56
2022/03/17 04:10:27;;;;;;;18.08;3.78;;;;;;;7.40;81.28;102305.78;5007491;28;20622;-58
2022/03/17 04:12:52;;;;;;;19.30;2.63;;;;;;;7.35;81.53;102328.53;5009739;28;20034;-59
2022/03/17 04:15:18;;;;;;;16.35;3.03;;;;;;;7.40;81.06;102332.03;5008283;28;20384;-57
2022/03/17 04:17:43;;;;;;;20.42;4.10;;;;;;;7.44;81.01;102331.19;5007073;28;20026;-58
2022/03/17 04:20:09;;;;;;;17.13;2.95;;;;;;;7.45;81.03;102340.78;5009159;28;20033;-58
2022/03/17 04:22:35;;;;;;;22.77;3.53;;;;;;;7.40;81.27;102374.88;4975469;28;20018;-57
2022/03/17 04:25:01;;;;;;;17.92;2.80;;;;;;;7.40;80.39;102360.88;5009065;28;20030;-62
2022/03/17 04:27:26;;;;;;;30.10;4.35;;;;;;;7.35;80.38;102360.88;5016147;28;20502;-57
2022/03/17 04:29:51;;;;;;;12.18;2.05;;;;;;;7.39;80.67;102369.63;5029314;28;20014;-57
2022/03/17 04:32:17;;;;;;;20.45;2.67;;;;;;;7.40;80.08;102353.00;5026384;28;20097;-58
2022/03/17 04:34:42;;;;;;;17.17;2.13;;;;;;;7.32;80.06;102366.09;5027778;28;20122;-58
2022/03/17 04:37:08;;;;;;;21.95;2.70;;;;;;;7.33;80.14;102387.09;5028822;28;20022;-60
2022/03/17 04:39:33;;;;;;;11.30;2.35;;;;;;;7.20;81.04;102382.66;5010809;28;20017;-60
2022/03/17 04:41:58;;;;;;;15.30;2.95;;;;;;;7.27;81.61;102394.94;5028534;28;20037;-56
2022/03/17 04:44:24;;;;;;;18.02;2.40;;;;;;;7.28;81.66;102406.28;5019613;28;20018;-58
2022/03/17 04:46:50;;;;;;;17.83;2.30;;;;;;;7.30;81.60;102415.91;5008515;28;20476;-57
2022/03/17 04:49:15;;;;;;;11.77;2.00;;;;;;;7.17;81.80;102414.94;5007704;28;20026;-59
2022/03/17 04:51:40;;;;;;;15.93;2.05;;;;;;;7.13;82.42;102422.81;5008988;28;20053;-58
2022/03/17 04:54:06;;;;;;;14.82;2.33;;;;;;;7.12;82.37;102444.63;5021011;28;20112;-57
2022/03/17 04:56:31;;;;;;;12.27;1.98;;;;;;;7.13;81.62;102457.75;5028741;28;20033;-58
2022/03/17 04:58:57;;;;;;;13.88;2.42;;;;;;;7.15;80.85;102449.91;5027417;28;20022;-56
2022/03/17 05:01:23;;;;;;;16.00;2.15;;;;;;;7.11;81.24;102458.63;5009423;28;20033;-56
2022/03/17 05:03:49;;;;;;;30.17;4.00;;;;;;;7.15;81.08;102468.25;5027999;28;20480;-56
2022/03/17 05:06:15;;;;;;;14.60;2.30;;;;;;;7.12;80.99;102470.84;5027712;28;20088;-58
2022/03/17 05:08:41;;;;;;;16.98;2.30;;;;;;;7.06;80.71;102479.56;5027718;28;20033;-57
2022/03/17 05:11:07;;;;;;;14.70;3.15;;;;;;;7.14;80.10;102487.47;5027645;28;20475;-60
2022/03/17 05:13:33;;;;;;;20.65;4.22;;;;;;;7.16;80.13;102499.72;5027707;28;20029;-56
2022/03/17 05:15:59;;;;;;;21.77;2.50;;;;;;;7.15;80.13;102521.56;5028567;28;20855;-59
2022/03/17 05:18:25;;;;;;;13.25;3.22;;;;;;;7.21;79.57;102515.50;5024617;28;20087;-58
2022/03/17 05:20:50;;;;;;;12.70;2.22;;;;;;;7.12;79.95;102534.66;5025962;28;20542;-55
2022/03/17 05:23:17;;;;;;;18.23;2.40;;;;;;;7.15;79.24;102523.31;5026069;28;20048;-57
2022/03/17 05:25:44;;;;;;;20.20;1.88;;;;;;;7.16;78.94;102538.16;5026234;28;20037;-57
2022/03/17 05:28:09;;;;;;;16.13;2.15;;;;;;;7.18;78.90;102542.56;5027562;28;20093;-58
2022/03/17 05:30:36;;;;;;;24.77;2.75;;;;;;;7.17;79.17;102555.66;5015325;28;20038;-59
2022/03/17 05:33:02;;;;;;;13.13;2.10;;;;;;;7.10;79.74;102549.47;5007316;28;20117;-59
2022/03/17 05:35:28;;;;;;;12.13;2.15;;;;;;;6.99;80.48;102565.13;4988611;28;20467;-58
2022/03/17 05:37:54;;;;;;;13.35;2.17;;;;;;;7.03;80.31;102585.25;5005781;28;20080;-60
2022/03/17 05:40:20;;;;;;;14.50;2.38;;;;;;;7.00;80.89;102560.75;5007400;28;20403;-55
2022/03/17 05:42:47;;;;;;;12.52;2.63;;;;;;;7.05;80.55;102570.41;5006105;28;20084;-57
2022/03/17 05:45:15;;;;;;;14.48;2.28;;;;;;;7.07;80.77;102592.28;5007642;28;20029;-56
2022/03/17 05:47:43;;;;;;;13.90;2.00;;;;;;;7.01;81.01;102592.22;5006806;28;20022;-55
2022/03/17 05:50:10;;;;;;;23.07;3.73;;;;;;;6.97;81.49;102590.44;5000388;28;20022;-59
2022/03/17 05:52:38;;;;;;;21.55;2.92;;;;;;;6.88;82.70;102598.22;4998733;28;20020;-54
2022/03/17 05:55:04;;;;;;;24.88;3.00;;;;;;;6.82;83.18;102601.66;4999154;28;20045;-56
2022/03/17 05:57:30;;;;;;;21.60;4.22;;;;;;;6.78;83.76;102606.00;4994825;28;20030;-54
2022/03/17 05:59:55;;;;;;;21.05;2.90;;;;;;;6.77;82.77;102625.19;4996696;28;20736;-56
2022/03/17 06:02:20;;;;;;;19.58;2.72;;;;;;;6.85;82.31;102613.91;5005555;28;20037;-62
2022/03/17 06:04:46;;;;;;;19.92;3.13;;;;;;;6.88;82.25;102611.31;5006219;28;20042;-61
2022/03/17 06:07:12;;;;;;;21.13;2.15;;;;;;;6.92;81.61;102629.72;5005230;28;20025;-61
2022/03/17 06:09:38;;;;;;;21.00;3.25;;;;;;;6.99;81.07;102629.78;4990820;28;20022;-61
2022/03/17 06:12:05;;;;;;;18.92;5.05;;;;;;;6.99;80.58;102645.50;5022967;28;20490;-61
2022/03/17 06:14:32;;;;;;;19.33;2.83;;;;;;;7.06;80.29;102647.31;5024333;28;20530;-53
2022/03/17 06:16:58;;;;;;;25.27;2.83;;;;;;;7.06;80.20;102656.06;5018776;28;20036;-57
2022/03/17 06:19:23;;;;;;;24.48;3.22;;;;;;;6.95;80.46;102658.56;4997884;28;20104;-58
2022/03/17 06:21:49;;;;;;;33.92;3.55;;;;;;;7.06;79.89;102660.41;4996454;28;20080;-58
2022/03/17 06:24:14;;;;;;;33.88;3.10;;;;;;;7.09;79.75;102668.31;4995939;28;20037;-57
2022/03/17 06:26:39;;;;;;;20.00;3.17;;;;;;;7.11;79.23;102665.72;5000893;28;20046;-57
2022/03/17 06:29:05;;;;;;;20.75;2.38;;;;;;;7.14;78.81;102686.72;4999253;28;20041;-57
2022/03/17 06:31:30;;;;;;;26.52;4.25;;;;;;;7.14;78.29;102690.25;4996622;28;20049;-54
2022/03/17 06:33:55;;;;;;;12.48;2.22;;;;;;;7.14;78.18;102695.47;4996375;28;20107;-57
2022/03/17 06:36:22;;;;;;;19.02;2.80;;;;;;;7.21;78.20;102706.91;4996006;28;20089;-60
2022/03/17 06:38:48;;;;;;;12.23;2.30;;;;;;;7.23;78.45;102717.41;4992740;28;20030;-57
2022/03/17 06:41:13;;;;;;;16.33;3.10;;;;;;;7.17;78.50;102710.34;4998108;28;20048;-57
2022/03/17 06:43:38;;;;;;;24.23;2.55;;;;;;;7.15;78.20;102726.06;4996976;28;20037;-55
2022/03/17 06:46:04;;;;;;;14.45;2.60;;;;;;;7.08;78.00;102719.00;4989520;28;20431;-60
2022/03/17 06:48:29;;;;;;;11.77;3.10;;;;;;;7.10;75.86;102733.00;5003324;28;20464;-54
2022/03/17 06:50:55;;;;;;;16.88;2.03;;;;;;;7.08;75.31;102725.09;5001675;28;20022;-59
2022/03/17 06:53:20;;;;;;;13.48;1.77;;;;;;;7.10;74.82;102740.00;4996030;28;20049;-61
2022/03/17 06:55:45;;;;;;;15.23;2.08;;;;;;;7.14;73.76;102744.41;4998292;28;20192;-60
2022/03/17 06:58:11;;;;;;;15.45;2.05;;;;;;;7.11;73.21;102753.13;5025509;28;20044;-59
2022/03/17 07:00:36;;;;;;;9.50;1.90;;;;;;;7.16;73.25;102750.53;5025665;28;20053;-57
2022/03/17 07:03:01;;;;;;;13.63;1.90;;;;;;;7.18;72.93;102759.28;5025460;28;20056;-58
2022/03/17 07:05:28;;;;;;;15.13;1.88;;;;;;;7.14;72.46;102766.28;5026049;28;20061;-56
2022/03/17 07:07:53;;;;;;;14.93;2.13;;;;;;;7.15;72.45;102781.13;5026364;28;20029;-58
2022/03/17 07:10:18;;;;;;;17.73;3.05;;;;;;;7.25;73.03;102773.38;5025327;28;20029;-56
2022/03/17 07:12:46;;;;;;;13.05;1.92;;;;;;;7.28;73.92;102789.13;5014798;28;20030;-59
2022/03/17 07:15:12;;;;;;;18.40;2.17;;;;;;;7.33;74.17;102779.56;4998265;28;20484;-53
2022/03/17 07:17:41;;;;;;;16.60;2.53;;;;;;;7.40;74.52;102777.88;4996504;28;20362;-53
2022/03/17 07:20:09;;;;;;;19.90;2.40;;;;;;;7.35;74.56;102787.47;4995599;28;20098;-55
2022/03/17 07:22:35;;;;;;;20.48;2.65;;;;;;;7.38;74.06;102800.59;4995684;28;20476;-51
2022/03/17 07:25:01;;;;;;;18.90;2.80;;;;;;;7.45;73.89;102794.56;4997279;28;20112;-55
2022/03/17 07:27:26;;;;;;;14.40;2.08;;;;;;;7.44;74.15;102813.78;4999917;28;20103;-60
2022/03/17 07:29:51;;;;;;;13.15;2.13;;;;;;;7.51;73.74;102810.38;5005263;28;20049;-60
2022/03/17 07:32:22;;;;;;;8.93;3.05;;;;;;;7.44;74.10;102816.41;5005827;28;20022;-60
2022/03/17 07:34:49;;;;;;;10.13;2.30;;;;;;;7.36;74.61;102825.94;5005136;28;20469;-57
2022/03/17 07:37:14;;;;;;;9.10;1.90;;;;;;;7.38;74.13;102829.47;5006415;28;20041;-60
2022/03/17 07:39:41;;;;;;;13.93;2.33;;;;;;;7.38;73.81;102838.22;4999523;28;20480;-61
2022/03/17 07:42:06;;;;;;;12.43;1.85;;;;;;;7.44;73.11;102829.53;5004877;28;20116;-62
2022/03/17 07:44:31;;;;;;;23.40;2.50;;;;;;;7.38;73.87;102839.94;5005814;28;20117;-59
2022/03/17 07:46:57;;;;;;;12.85;1.90;;;;;;;7.40;73.63;102853.94;5005503;28;20498;-58
2022/03/17 07:49:22;;;;;;;13.13;2.05;;;;;;;7.45;73.67;102854.88;5005313;28;20084;-58
2022/03/17 07:51:47;;;;;;;16.13;2.22;;;;;;;7.36;73.50;102847.78;5005461;28;20076;-59
2022/03/17 07:54:13;;;;;;;13.77;1.65;;;;;;;7.31;73.45;102847.72;4995888;28;20037;-60
2022/03/17 07:56:38;;;;;;;10.70;2.15;;;;;;;7.24;72.52;102850.25;4994926;28;20079;-60
2022/03/17 07:59:03;;;;;;;6.88;1.65;;;;;;;7.24;72.16;102861.63;4996805;28;20036;-61
2022/03/17 08:01:29;;;;;;;9.68;1.85;;;;;;;7.20;72.99;102870.34;4984976;28;20087;-60
2022/03/17 08:03:54;;;;;;;10.18;2.17;;;;;;;7.13;73.22;102884.22;4995602;28;20073;-62
2022/03/17 08:06:21;;;;;;;13.93;1.83;;;;;;;7.21;73.19;102890.44;4992799;28;20045;-60
2022/03/17 08:08:46;;;;;;;14.88;1.80;;;;;;;7.22;73.27;102910.53;4994840;28;20411;-61
2022/03/17 08:11:12;;;;;;;6.55;1.40;;;;;;;7.31;72.70;102905.44;4993607;28;20031;-59
2022/03/17 08:13:38;;;;;;;9.35;1.75;;;;;;;7.43;72.41;102909.97;5003347;28;20030;-57
2022/03/17 08:16:03;;;;;;;17.00;2.53;;;;;;;7.50;71.58;102921.44;5003817;28;20772;-54
2022/03/17 08:18:30;;;;;;;9.90;1.70;;;;;;;7.71;70.97;102919.91;4994350;28;20080;-56
2022/03/17 08:20:55;;;;;;;13.38;1.88;;;;;;;7.88;71.28;102921.81;4995718;28;20117;-55
2022/03/17 08:23:21;;;;;;;11.40;1.90;;;;;;;8.07;71.19;102929.03;4993932;28;20108;-53
2022/03/17 08:25:48;;;;;;;9.35;1.73;;;;;;;8.27;71.34;102936.25;4996665;28;20022;-57
2022/03/17 08:28:14;;;;;;;8.02;1.63;;;;;;;8.31;68.80;102943.28;4996579;28;20027;-55
2022/03/17 08:30:39;;;;;;;7.57;1.55;;;;;;;8.17;67.68;102951.03;4996780;28;20033;-53
2022/03/17 08:33:05;;;;;;;5.57;1.10;;;;;;;8.32;68.18;102955.56;4997262;28;20083;-53
2022/03/17 08:35:30;;;;;;;7.53;1.70;;;;;;;8.45;66.94;102961.81;4994457;28;20286;-53
2022/03/17 08:37:59;;;;;;;9.85;2.20;;;;;;;8.62;66.65;102958.50;4995047;28;20771;-56
2022/03/17 08:40:24;;;;;;;4.32;1.40;;;;;;;8.76;66.69;102965.63;4993968;28;20080;-57
2022/03/17 08:42:49;;;;;;;11.45;1.50;;;;;;;8.91;66.10;102976.22;5005999;28;20638;-55
2022/03/17 08:50:44;;;;;;;8.25;2.55;;;;;;;8.82;65.20;103005.09;4996236;28;20057;-60
2022/03/17 08:53:09;;;;;;;6.88;1.60;;;;;;;8.93;65.20;103008.69;4993070;28;20026;-59
2022/03/17 08:55:36;;;;;;;8.25;2.22;;;;;;;9.05;64.64;103007.91;4988520;28;20052;-60
2022/03/17 08:58:02;;;;;;;5.53;1.75;;;;;;;9.08;65.74;103004.41;4989478;28;20100;-62
2022/03/17 09:00:30;;;;;;;11.43;1.85;;;;;;;9.23;65.59;103019.41;5003605;28;20488;-61
2022/03/17 09:02:59;;;;;;;15.30;1.83;;;;;;;9.26;64.39;103014.19;5028015;28;20029;-61
2022/03/17 09:05:25;;;;;;;9.15;1.63;;;;;;;9.42;64.61;103022.19;4997493;28;20447;-60
2022/03/17 09:07:50;;;;;;;6.68;1.67;;;;;;;9.15;64.38;103032.50;4993596;28;20117;-61
2022/03/17 09:10:16;;;;;;;7.28;1.60;;;;;;;9.19;64.52;103033.44;4987433;28;20037;-61
2022/03/17 09:12:41;;;;;;;12.10;2.00;;;;;;;9.22;64.74;103034.31;4989299;28;20109;-60
2022/03/17 09:15:08;;;;;;;9.25;1.90;;;;;;;9.24;63.82;103039.59;4998246;28;20117;-61
2022/03/17 09:17:33;;;;;;;6.78;1.70;;;;;;;9.21;64.46;103042.19;4997364;28;20727;-62
2022/03/17 09:19:58;;;;;;;9.05;1.70;;;;;;;9.33;63.91;103044.06;4997109;28;20025;-62
2022/03/17 09:22:23;;;;;;;9.82;2.17;;;;;;;9.45;63.38;103048.53;4999009;28;20112;-62
2022/03/17 09:24:49;;;;;;;7.90;1.77;;;;;;;9.49;64.14;103052.94;4996173;28;20044;-61
2022/03/17 09:27:15;;;;;;;8.30;1.95;;;;;;;9.54;63.79;103045.91;4998237;28;20026;-61
2022/03/17 09:29:40;;;;;;;7.95;2.78;;;;;;;9.53;64.34;103057.34;4998582;28;20488;-61
2022/03/17 09:32:09;;;;;;;8.07;1.88;;;;;;;9.47;64.86;103059.91;4998769;28;20014;-61
2022/03/17 09:34:35;;;;;;;12.57;1.92;;;;;;;9.63;64.93;103067.91;4988298;28;20122;-61
2022/03/17 09:37:00;;;;;;;11.90;1.95;;;;;;;9.79;63.09;103077.66;4988232;28;20030;-60
2022/03/17 09:42:10;;;;;;;17.00;2.42;;;;;;;9.97;62.19;103083.91;4996477;28;20045;-58
2022/03/17 09:44:36;;;;;;;8.80;1.85;;;;;;;10.01;62.21;103101.47;5000629;28;20030;-57
2022/03/17 09:47:03;;;;;;;7.30;1.88;;;;;;;10.09;62.45;103102.38;4996737;28;20030;-54
2022/03/17 09:49:28;;;;;;;10.70;2.42;;;;;;;10.06;62.66;103106.75;4987714;28;20447;-57
2022/03/17 09:51:57;;;;;;;8.15;2.17;;;;;;;9.98;61.75;103104.09;4997508;28;20101;-59
2022/03/17 09:54:22;;;;;;;9.30;2.28;;;;;;;9.89;61.92;103120.72;5003850;28;20029;-57
2022/03/17 09:56:48;;;;;;;13.00;1.88;;;;;;;9.67;61.88;103127.59;5005098;28;20017;-58
2022/03/17 09:59:13;;;;;;;9.32;2.25;;;;;;;9.64;62.90;103130.22;5004139;28;20037;-58
2022/03/17 10:01:38;;;;;;;11.38;2.20;;;;;;;9.75;62.61;103131.16;5001683;28;20062;-53
2022/03/17 10:04:06;;;;;;;6.07;1.90;;;;;;;9.65;62.04;103126.69;5004264;28;20057;-56
2022/03/17 10:06:32;;;;;;;8.55;2.10;;;;;;;9.54;61.97;103139.81;5004097;28;20058;-58
2022/03/17 10:08:58;;;;;;;9.25;2.00;;;;;;;9.57;63.01;103126.69;4997503;28;20539;-58
2022/03/17 10:11:25;;;;;;;9.40;2.35;;;;;;;9.60;63.78;103132.81;5003026;28;20160;-58
2022/03/17 10:13:50;;;;;;;14.57;2.40;;;;;;;9.70;63.35;103144.28;4993559;28;20109;-59
2022/03/17 10:16:18;;;;;;;3.92;1.40;;;;;;;9.63;60.70;103145.13;4998121;28;20484;-57
2022/03/17 10:18:46;;;;;;;7.95;2.08;;;;;;;9.51;60.82;103151.16;4969857;28;20034;-57
2022/03/17 10:21:12;;;;;;;10.88;3.20;;;;;;;9.60;61.03;103167.03;4995506;28;20029;-56
2022/03/17 10:23:45;;;;;;;15.30;2.63;;;;;;;9.82;60.83;103164.56;4997512;28;20026;-57
2022/03/17 10:26:11;;;;;;;10.10;2.25;;;;;;;10.08;60.94;103168.22;4997398;28;20029;-61
2022/03/17 10:28:38;;;;;;;8.55;2.33;;;;;;;10.38;61.04;103181.56;4994498;28;20014;-54
2022/03/17 10:31:05;;;;;;;9.25;2.50;;;;;;;10.45;60.68;103183.34;4997864;28;20021;-53
2022/03/17 10:33:31;;;;;;;12.43;2.78;;;;;;;9.99;61.75;103201.56;5003904;28;20365;-57
2022/03/17 10:36:20;;;;;;;10.27;2.25;;;;;;;9.71;61.60;103205.72;5001799;28;21063;-57
2022/03/17 10:38:47;;;;;;;8.55;2.45;;;;;;;9.61;59.93;103221.44;5001995;28;20072;-59
2022/03/17 10:41:13;;;;;;;8.27;1.70;;;;;;;9.75;58.82;103206.66;5004793;28;20033;-59
2022/03/17 10:43:42;;;;;;;7.43;2.13;;;;;;;10.00;59.58;103210.34;5004103;28;20034;-56
2022/03/17 10:46:15;;;;;;;11.50;2.78;;;;;;;10.28;60.42;103218.41;5002190;28;20033;-64
2022/03/17 10:48:52;;;;;;;7.97;2.20;;;;;;;10.35;59.81;103235.13;5004578;28;20044;-61
2022/03/17 10:51:42;;;;;;;5.70;1.92;;;;;;;10.22;57.90;103229.81;5004194;28;20038;-62
2022/03/17 10:54:20;;;;;;;8.50;2.55;;;;;;;10.36;58.51;103227.22;4994741;28;20056;-62
2022/03/17 10:57:08;;;;;;;8.05;2.30;;;;;;;10.08;58.99;103242.88;5004836;28;20548;-60
2022/03/17 10:59:44;;;;;;;8.13;2.35;;;;;;;9.98;58.95;103238.41;5004199;28;20026;-59
2022/03/17 11:02:21;;;;;;;7.75;1.85;;;;;;;9.90;58.62;103232.22;5002809;28;20049;-61
2022/03/17 11:04:47;;;;;;;8.75;2.00;;;;;;;10.07;58.93;103227.94;5002856;28;20042;-60
2022/03/17 11:07:14;;;;;;;6.35;2.30;;;;;;;10.36;59.28;103232.50;4987376;28;20396;-58
2022/03/17 11:09:43;;;;;;;11.23;2.67;;;;;;;10.33;59.71;103258.84;5004193;28;20050;-53
2022/03/17 11:12:12;;;;;;;9.35;2.15;;;;;;;10.23;57.88;103268.44;5004846;28;20037;-53
2022/03/17 11:14:47;;;;;;;;;;;;;;;10.22;57.45;103235.06;5006026;28;20451;-56
2022/03/17 11:17:17;;;;;;;5.70;1.55;;;;;;;10.24;58.39;103256.16;5004637;28;20012;-55
2022/03/17 11:19:43;;;;;;;10.18;1.75;;;;;;;10.31;57.29;103259.69;4987749;28;20032;-54
2022/03/17 11:22:14;;;;;;;4.05;1.40;;;;;;;10.36;56.56;103248.31;5005003;28;20113;-59
2022/03/17 11:24:39;;;;;;;11.02;1.88;;;;;;;10.35;57.28;103257.09;5001362;28;20670;-56
2022/03/17 11:27:13;;;;;;;14.70;2.97;;;;;;;10.33;58.70;103256.19;4995663;28;20033;-57
2022/03/17 11:29:45;;;;;;;8.93;1.98;;;;;;;10.50;58.20;103247.53;4993386;28;21002;-56
2022/03/17 11:32:31;;;;;;;5.97;2.25;;;;;;;10.61;57.15;103258.16;4996212;28;20029;-54
2022/03/17 11:35:29;;;;;;;14.77;1.90;;;;;;;10.34;55.56;103252.72;4999772;28;20113;-56
2022/03/17 11:38:14;;;;;;;9.27;1.42;;;;;;;10.50;56.64;103263.34;4985479;28;20176;-57
2022/03/17 11:41:18;;;;;;;13.85;1.90;;;;;;;10.58;57.82;103269.56;4985395;28;20057;-57